Time;durP1;ratioP1;P1;durP2;ratioP2;P2;SDS_P1;SDS_P2;PMS_P1;PMS_P2;Temp;Humidity;BMP_temperature;BMP_pressure;BME280_temperature;BME280_humidity;BME280_pressure;Samples;Min_cycle;Max_cycle;Signal;HPM_P1;HPM_P2
2022/11/01 00:01:57;;;;;;;18.10;8.17;;;20.00;89.50;;;;;;4949399;28;20442;-95
2022/11/01 00:07:18;;;;;;;10.50;4.90;;;20.10;89.40;;;;;;5014198;28;20221;-96
2022/11/01 00:10:52;;;;;;;12.80;6.00;;;20.10;89.40;;;;;;5030734;28;20201;-95
2022/11/01 00:14:00;;;;;;;8.93;5.03;;;20.10;89.30;;;;;;4972545;28;20256;-96
2022/11/01 00:16:46;;;;;;;10.07;5.63;;;20.10;89.20;;;;;;5021537;28;20636;-96
2022/11/01 00:19:34;;;;;;;16.03;6.73;;;20.10;88.80;;;;;;5020734;28;20252;-93
2022/11/01 00:29:34;;;;;;;10.63;4.70;;;20.20;87.90;;;;;;4933505;29;20188;-95
2022/11/01 00:40:02;;;;;;;9.97;4.23;;;20.20;85.40;;;;;;4832768;29;20210;-96
2022/11/01 00:43:25;;;;;;;6.33;3.10;;;20.20;83.80;;;;;;4899661;29;20242;-96
2022/11/01 00:46:23;;;;;;;8.77;3.83;;;20.10;82.80;;;;;;4810377;29;20226;-94
2022/11/01 00:49:35;;;;;;;;;;;;;;;;;;;;;
2022/11/01 00:55:48;;;;;;;6.90;2.90;;;20.00;79.80;;;;;;4894414;29;20206;-94
2022/11/01 00:58:29;;;;;;;9.47;3.80;;;20.00;78.50;;;;;;4923923;29;20239;-95
2022/11/01 01:00:59;;;;;;;4.87;2.10;;;20.00;79.50;;;;;;4972740;28;20233;-93
2022/11/01 01:03:27;;;;;;;7.47;3.03;;;20.00;78.20;;;;;;5019680;28;20201;-94
2022/11/01 01:06:06;;;;;;;3.80;1.80;;;19.90;77.80;;;;;;5029880;28;20289;-94
2022/11/01 01:08:49;;;;;;;3.10;1.77;;;19.90;77.10;;;;;;5024303;28;20205;-96
2022/11/01 01:11:31;;;;;;;7.23;3.10;;;19.90;76.80;;;;;;5018728;28;20210;-94
2022/11/01 01:14:16;;;;;;;7.10;2.63;;;19.80;76.40;;;;;;5010682;28;20542;-95
2022/11/01 01:16:48;;;;;;;8.73;3.47;;;19.80;75.80;;;;;;5016890;28;20205;-95
2022/11/01 01:21:59;;;;;;;6.43;2.50;;;19.70;76.50;;;;;;5021039;28;20987;-95
2022/11/01 01:24:27;;;;;;;9.27;3.63;;;19.70;76.60;;;;;;5020250;28;20460;-95
2022/11/01 01:27:02;;;;;;;8.00;2.30;;;19.70;76.30;;;;;;5021211;28;20196;-93
2022/11/01 01:29:40;;;;;;;5.57;2.33;;;19.60;75.10;;;;;;5009734;28;20613;-95
2022/11/01 01:32:08;;;;;;;7.20;2.37;;;19.60;75.60;;;;;;5017896;28;20263;-94
2022/11/01 01:34:38;;;;;;;6.80;2.40;;;19.60;75.90;;;;;;5022534;28;20221;-96
2022/11/01 01:37:14;;;;;;;7.30;2.93;;;19.50;74.70;;;;;;5020114;28;20208;-96
2022/11/01 01:39:44;;;;;;;7.67;2.70;;;19.50;74.40;;;;;;5022065;28;20232;-95
2022/11/01 01:42:31;;;;;;;5.97;2.33;;;19.50;75.00;;;;;;5019905;28;20296;-95
2022/11/01 01:45:43;;;;;;;9.27;2.87;;;19.40;73.50;;;;;;5020759;28;20244;-95
2022/11/01 01:48:16;;;;;;;7.03;3.00;;;19.40;73.70;;;;;;5012735;28;20693;-95
2022/11/01 01:51:03;;;;;;;8.47;2.27;;;19.40;74.20;;;;;;5013340;28;20225;-94
2022/11/01 01:53:39;;;;;;;7.07;2.43;;;19.40;73.90;;;;;;5017340;28;20201;-95
2022/11/01 01:56:11;;;;;;;13.33;4.50;;;19.30;73.90;;;;;;5024088;28;20193;-95
2022/11/01 01:58:48;;;;;;;13.57;3.37;;;19.30;72.80;;;;;;5013203;28;20206;-95
2022/11/01 02:01:22;;;;;;;12.67;3.57;;;19.20;71.70;;;;;;5019480;28;20219;-94
2022/11/01 02:03:51;;;;;;;9.30;2.23;;;19.20;71.70;;;;;;5014914;28;20210;-95
2022/11/01 02:06:23;;;;;;;9.73;2.93;;;19.20;71.80;;;;;;5002650;28;20213;-95
2022/11/01 02:08:56;;;;;;;10.67;3.37;;;19.10;71.30;;;;;;5017596;28;20202;-95
2022/11/01 02:11:31;;;;;;;11.03;3.27;;;19.00;70.90;;;;;;5019975;28;20223;-96
2022/11/01 02:14:01;;;;;;;10.83;3.50;;;19.00;70.70;;;;;;5019973;28;20273;-94
2022/11/01 02:17:08;;;;;;;12.97;3.97;;;18.90;70.80;;;;;;5016178;28;20556;-93
2022/11/01 02:20:14;;;;;;;9.10;2.03;;;18.80;70.00;;;;;;5022558;28;20211;-95
2022/11/01 02:23:05;;;;;;;13.90;3.43;;;18.80;70.20;;;;;;5014327;28;20273;-92
2022/11/01 02:26:01;;;;;;;11.70;2.67;;;18.70;70.00;;;;;;5004651;28;20222;-90
2022/11/01 02:28:51;;;;;;;13.07;3.63;;;18.60;70.10;;;;;;5015616;28;20240;-93
2022/11/01 02:31:50;;;;;;;18.33;4.10;;;18.60;70.20;;;;;;5017400;28;20638;-88
2022/11/01 02:34:35;;;;;;;18.13;3.80;;;18.50;69.90;;;;;;5020365;28;20215;-94
2022/11/01 02:37:13;;;;;;;8.40;2.47;;;18.50;70.60;;;;;;5013287;28;20216;-92
2022/11/01 02:39:57;;;;;;;12.17;3.60;;;18.40;70.80;;;;;;4999323;28;20189;-94
2022/11/01 02:42:31;;;;;;;9.83;2.77;;;18.30;71.10;;;;;;5007591;28;20236;-92
2022/11/01 02:45:06;;;;;;;11.87;3.47;;;18.30;71.40;;;;;;4999840;28;20214;-92
2022/11/01 02:47:41;;;;;;;13.33;3.20;;;18.20;71.70;;;;;;5002092;28;20278;-93
2022/11/01 02:50:16;;;;;;;5.43;2.13;;;18.20;72.10;;;;;;4998455;28;20679;-95
2022/11/01 02:52:52;;;;;;;8.00;2.40;;;18.20;72.00;;;;;;5014647;28;20638;-94
2022/11/01 02:55:33;;;;;;;8.33;2.73;;;18.10;71.70;;;;;;5022382;28;20195;-94
2022/11/01 02:58:03;;;;;;;9.60;2.80;;;18.10;72.00;;;;;;5002384;28;20205;-89
2022/11/01 03:00:44;;;;;;;10.80;3.33;;;18.10;71.80;;;;;;5017054;28;20205;-92
2022/11/01 03:03:26;;;;;;;13.97;3.03;;;18.00;70.90;;;;;;5013477;28;20262;-92
2022/11/01 03:06:13;;;;;;;7.53;2.30;;;17.90;70.20;;;;;;5020497;28;20217;-94
2022/11/01 03:08:48;;;;;;;10.43;3.13;;;17.90;70.40;;;;;;5008092;28;20548;-92
2022/11/01 03:11:21;;;;;;;11.93;3.10;;;17.90;70.20;;;;;;5016800;28;20228;-92
2022/11/01 03:14:04;;;;;;;9.70;3.20;;;17.80;70.10;;;;;;5001554;28;20209;-94
2022/11/01 03:16:45;;;;;;;14.77;3.40;;;17.70;69.40;;;;;;5007984;28;20204;-94
2022/11/01 03:19:40;;;;;;;9.03;2.73;;;17.70;69.20;;;;;;5006657;28;20287;-93
2022/11/01 03:22:28;;;;;;;9.77;2.87;;;17.60;68.80;;;;;;4996736;28;20267;-94
2022/11/01 03:25:36;;;;;;;14.43;2.70;;;17.50;69.10;;;;;;5015934;28;20646;-93
2022/11/01 03:27:58;;;;;;;8.33;2.77;;;17.50;69.70;;;;;;5019687;28;20208;-92
2022/11/01 03:30:36;;;;;;;9.73;2.33;;;17.40;69.10;;;;;;5020364;28;20268;-95
2022/11/01 03:33:07;;;;;;;8.43;1.80;;;17.40;70.00;;;;;;5019071;28;20193;-95
2022/11/01 03:35:40;;;;;;;9.60;2.37;;;17.30;69.10;;;;;;5017694;28;20231;-93
2022/11/01 03:38:21;;;;;;;11.27;3.90;;;17.30;69.40;;;;;;5006675;28;20206;-95
2022/11/01 03:43:42;;;;;;;9.10;2.83;;;17.20;69.40;;;;;;5001376;28;20202;-95
2022/11/01 03:46:16;;;;;;;13.30;3.67;;;17.20;69.50;;;;;;5019967;28;20564;-92
2022/11/01 03:48:51;;;;;;;11.00;3.03;;;17.10;69.50;;;;;;5015302;28;20215;-95
2022/11/01 03:51:23;;;;;;;15.10;3.63;;;17.10;69.60;;;;;;5011384;28;20201;-94
2022/11/01 03:53:57;;;;;;;12.03;3.20;;;17.10;69.40;;;;;;5028913;28;20219;-95
2022/11/01 03:56:28;;;;;;;8.57;3.00;;;17.00;69.20;;;;;;5021505;28;20229;-92
2022/11/01 03:58:57;;;;;;;6.90;2.43;;;17.00;69.00;;;;;;5011712;28;20205;-94
2022/11/01 04:01:29;;;;;;;13.27;3.67;;;17.00;68.80;;;;;;5017764;28;20299;-93
2022/11/01 04:03:57;;;;;;;12.90;4.00;;;16.90;68.80;;;;;;5018900;28;20199;-93
2022/11/01 04:06:29;;;;;;;9.93;2.67;;;16.90;68.60;;;;;;5024834;28;20210;-93
2022/11/01 04:09:29;;;;;;;9.90;2.63;;;16.90;68.60;;;;;;5019040;28;20220;-93
2022/11/01 04:12:00;;;;;;;10.57;2.77;;;16.80;68.00;;;;;;5021539;28;20200;-93
2022/11/01 04:22:51;;;;;;;13.27;3.27;;;16.70;67.50;;;;;;5007515;28;20233;-91
2022/11/01 04:25:25;;;;;;;13.23;3.20;;;16.70;67.70;;;;;;5012878;28;20195;-93
2022/11/01 04:27:58;;;;;;;12.30;3.30;;;16.60;66.60;;;;;;5022073;28;20192;-94
2022/11/01 04:30:29;;;;;;;11.20;2.93;;;16.60;67.50;;;;;;5021816;28;20304;-93
2022/11/01 04:33:03;;;;;;;10.67;2.83;;;16.60;66.90;;;;;;5017229;28;20205;-95
2022/11/01 04:35:38;;;;;;;14.03;3.73;;;16.60;66.60;;;;;;5021103;28;20202;-93
2022/11/01 04:38:12;;;;;;;8.53;2.70;;;16.50;66.60;;;;;;5004075;28;20208;-94
2022/11/01 04:41:00;;;;;;;14.80;4.03;;;16.50;66.60;;;;;;5005608;28;20197;-94
2022/11/01 04:43:38;;;;;;;18.40;4.33;;;16.50;66.50;;;;;;5013848;28;20251;-95
2022/11/01 04:46:11;;;;;;;7.43;2.30;;;16.50;66.20;;;;;;5030860;28;20208;-94
2022/11/01 04:48:48;;;;;;;13.33;3.43;;;16.50;66.40;;;;;;5026512;28;20215;-93
2022/11/01 04:51:27;;;;;;;10.07;2.70;;;16.50;66.20;;;;;;5025742;28;20259;-92
2022/11/01 04:53:56;;;;;;;11.30;2.70;;;16.50;66.10;;;;;;5024570;28;20220;-90
2022/11/01 04:56:45;;;;;;;10.37;2.80;;;16.50;66.10;;;;;;5015971;28;20202;-93
2022/11/01 04:59:17;;;;;;;12.10;3.17;;;16.50;65.80;;;;;;5026476;28;20266;-95
2022/11/01 05:01:51;;;;;;;14.30;3.43;;;16.50;66.30;;;;;;5023410;28;20230;-94
2022/11/01 05:04:24;;;;;;;14.67;4.03;;;16.40;66.10;;;;;;5027142;28;20195;-94
2022/11/01 05:06:54;;;;;;;13.50;3.33;;;16.40;65.80;;;;;;5026794;28;20237;-95
2022/11/01 05:09:25;;;;;;;9.50;2.97;;;16.40;65.70;;;;;;5026897;28;20601;-93
2022/11/01 05:12:00;;;;;;;9.37;3.47;;;16.40;65.80;;;;;;5028328;28;20214;-95
2022/11/01 05:14:30;;;;;;;12.13;3.40;;;16.30;66.00;;;;;;5021341;28;20209;-93
2022/11/01 05:17:01;;;;;;;15.70;3.13;;;16.30;66.10;;;;;;5021580;28;20207;-94
2022/11/01 05:19:36;;;;;;;16.13;4.17;;;16.30;66.10;;;;;;5012873;28;20198;-94
2022/11/01 05:22:08;;;;;;;12.20;2.17;;;16.30;66.10;;;;;;5016114;28;20225;-93
2022/11/01 05:27:31;;;;;;;11.57;3.00;;;16.20;65.80;;;;;;5028603;28;20233;-93
2022/11/01 05:29:58;;;;;;;14.37;3.47;;;16.30;66.00;;;;;;5026416;28;20205;-92
2022/11/01 05:32:46;;;;;;;12.03;3.37;;;16.20;66.10;;;;;;5016544;28;20275;-94
2022/11/01 05:35:21;;;;;;;11.27;2.33;;;16.10;65.80;;;;;;5014086;28;20288;-92
2022/11/01 05:37:57;;;;;;;17.87;4.40;;;16.10;66.10;;;;;;5021204;28;20210;-92
2022/11/01 05:40:28;;;;;;;10.07;2.70;;;16.10;66.20;;;;;;5033864;28;20201;-96
2022/11/01 05:43:15;;;;;;;11.87;3.20;;;16.10;66.40;;;;;;5023472;28;20286;-95
2022/11/01 05:45:59;;;;;;;10.50;3.07;;;16.10;66.30;;;;;;5017545;28;20209;-89
2022/11/01 05:48:34;;;;;;;12.53;3.33;;;16.10;66.20;;;;;;5023136;28;20214;-95
2022/11/01 05:51:12;;;;;;;13.03;3.03;;;16.00;66.00;;;;;;5007855;28;20615;-95
2022/11/01 05:53:40;;;;;;;12.13;2.83;;;16.00;66.40;;;;;;5022704;28;20209;-96
2022/11/01 05:56:14;;;;;;;10.83;3.23;;;16.00;66.50;;;;;;5027050;28;20206;-93
2022/11/01 05:58:57;;;;;;;13.63;3.33;;;15.90;66.40;;;;;;5012004;28;20210;-96
2022/11/01 06:01:32;;;;;;;12.87;3.30;;;15.90;66.50;;;;;;5026921;28;20360;-94
2022/11/01 06:04:12;;;;;;;10.77;2.37;;;15.90;66.70;;;;;;5025408;28;20209;-92
2022/11/01 06:06:40;;;;;;;9.97;2.87;;;15.90;67.00;;;;;;5025950;28;20284;-93
2022/11/01 06:09:15;;;;;;;10.73;2.90;;;15.80;66.70;;;;;;5027461;28;20205;-96
2022/11/01 06:11:52;;;;;;;12.60;3.07;;;15.80;66.90;;;;;;5027455;28;20224;-94
2022/11/01 06:14:34;;;;;;;15.07;3.10;;;15.80;66.80;;;;;;5021593;28;20200;-96
2022/11/01 06:17:15;;;;;;;12.17;3.23;;;15.80;67.00;;;;;;5013020;28;20223;-94
2022/11/01 06:19:56;;;;;;;16.90;3.53;;;15.80;67.20;;;;;;5008488;28;20229;-94
2022/11/01 06:22:33;;;;;;;15.40;3.83;;;15.80;67.10;;;;;;5022445;28;20207;-94
2022/11/01 06:25:03;;;;;;;15.57;3.63;;;15.80;67.30;;;;;;5024903;28;20207;-95
2022/11/01 06:27:46;;;;;;;13.47;3.93;;;15.80;67.20;;;;;;5022356;28;20205;-94
2022/11/01 06:30:19;;;;;;;13.13;3.20;;;15.70;67.20;;;;;;5012456;28;20220;-92
2022/11/01 06:33:00;;;;;;;8.73;2.73;;;15.70;67.10;;;;;;5025240;28;20213;-88
2022/11/01 06:35:32;;;;;;;11.13;2.97;;;15.70;67.80;;;;;;5012064;28;20206;-93
2022/11/01 06:38:12;;;;;;;13.17;3.90;;;15.70;67.20;;;;;;5026695;28;20232;-96
2022/11/01 06:40:47;;;;;;;11.90;3.20;;;15.70;67.30;;;;;;5012448;28;20210;-94
2022/11/01 06:43:17;;;;;;;10.37;3.30;;;15.70;67.30;;;;;;5021368;28;20360;-94
2022/11/01 06:45:46;;;;;;;17.47;4.27;;;15.70;67.40;;;;;;5024361;28;20282;-91
2022/11/01 06:48:14;;;;;;;14.90;4.30;;;15.60;67.30;;;;;;5009121;28;20260;-95
2022/11/01 06:50:43;;;;;;;15.13;3.80;;;15.60;67.40;;;;;;5017215;28;20541;-91
2022/11/01 06:53:12;;;;;;;18.03;3.87;;;15.60;67.50;;;;;;5015669;28;20229;-95
2022/11/01 06:55:42;;;;;;;15.03;4.20;;;15.60;67.60;;;;;;5014160;28;20251;-95
2022/11/01 06:58:09;;;;;;;16.67;4.47;;;15.60;67.50;;;;;;5019330;28;20202;-92
2022/11/01 07:00:43;;;;;;;16.53;3.90;;;15.50;67.60;;;;;;5007778;28;20214;-94
2022/11/01 07:03:13;;;;;;;12.37;3.53;;;15.50;67.50;;;;;;5017641;28;20231;-93
2022/11/01 07:05:41;;;;;;;15.13;3.50;;;15.50;67.70;;;;;;5021565;28;20273;-94
2022/11/01 07:08:12;;;;;;;12.03;3.43;;;15.50;67.80;;;;;;5021830;28;20205;-93
2022/11/01 07:10:52;;;;;;;14.67;4.37;;;15.50;68.00;;;;;;5024688;28;20254;-95
2022/11/01 07:13:20;;;;;;;12.53;3.80;;;15.50;68.70;;;;;;5011455;28;20194;-92
2022/11/01 07:15:48;;;;;;;11.33;2.63;;;15.50;68.00;;;;;;5021234;28;21090;-94
2022/11/01 07:18:20;;;;;;;20.00;3.87;;;15.50;68.30;;;;;;5008990;28;20737;-91
2022/11/01 07:20:50;;;;;;;12.33;3.70;;;15.50;68.30;;;;;;5020894;28;20210;-93
2022/11/01 07:23:19;;;;;;;16.17;3.50;;;15.50;68.30;;;;;;5011882;28;20225;-91
2022/11/01 07:25:51;;;;;;;19.47;4.13;;;15.50;68.40;;;;;;5019695;28;20237;-90
2022/11/01 07:28:19;;;;;;;15.00;3.83;;;15.50;68.60;;;;;;5023978;28;20217;-92
2022/11/01 07:30:48;;;;;;;12.43;3.43;;;15.50;68.50;;;;;;5030509;28;20205;-92
2022/11/01 07:33:24;;;;;;;17.63;4.03;;;15.50;68.60;;;;;;5020575;28;20204;-90
2022/11/01 07:35:52;;;;;;;15.20;3.57;;;15.50;68.70;;;;;;5015802;28;20244;-91
2022/11/01 07:38:23;;;;;;;15.33;3.30;;;15.50;68.70;;;;;;5019585;28;20233;-90
2022/11/01 07:40:53;;;;;;;13.20;3.87;;;15.50;68.90;;;;;;5019987;28;20208;-92
2022/11/01 07:43:25;;;;;;;15.50;4.10;;;15.50;68.90;;;;;;5017896;28;20819;-94
2022/11/01 07:45:58;;;;;;;13.40;2.50;;;15.50;68.80;;;;;;5007760;28;20263;-93
2022/11/01 07:48:26;;;;;;;11.83;3.63;;;15.60;69.00;;;;;;5017255;28;20219;-91
2022/11/01 07:50:56;;;;;;;13.23;4.10;;;15.60;68.90;;;;;;5009458;28;20763;-92
2022/11/01 07:53:26;;;;;;;11.77;4.33;;;15.60;69.00;;;;;;4997127;28;20210;-95
2022/11/01 07:55:54;;;;;;;7.00;2.37;;;15.60;68.90;;;;;;5007138;28;20254;-94
2022/11/01 07:58:23;;;;;;;14.07;3.83;;;15.60;68.80;;;;;;5013033;28;20213;-92
2022/11/01 08:00:54;;;;;;;19.23;4.80;;;15.60;69.00;;;;;;5011774;28;20627;-92
2022/11/01 08:03:22;;;;;;;15.87;4.37;;;15.60;68.90;;;;;;5008770;28;20230;-91
2022/11/01 08:05:52;;;;;;;10.80;3.37;;;15.60;68.80;;;;;;5013024;28;20207;-91
2022/11/01 08:08:19;;;;;;;17.90;3.77;;;15.70;69.00;;;;;;5015172;28;20563;-90
2022/11/01 08:10:47;;;;;;;12.47;4.03;;;15.70;69.10;;;;;;5017419;28;20297;-91
2022/11/01 08:13:17;;;;;;;11.70;3.63;;;15.70;69.10;;;;;;5016580;28;20216;-94
2022/11/01 08:15:45;;;;;;;12.17;3.40;;;15.70;69.00;;;;;;5011783;28;20661;-94
2022/11/01 08:18:12;;;;;;;17.60;3.93;;;15.70;68.90;;;;;;5005101;28;20273;-91
2022/11/01 08:23:24;;;;;;;16.40;4.77;;;15.80;69.60;;;;;;5025694;28;20235;-92
2022/11/01 08:25:51;;;;;;;11.67;3.00;;;15.80;68.70;;;;;;5028541;28;20202;-93
2022/11/01 08:28:21;;;;;;;14.93;3.23;;;15.90;68.90;;;;;;5027134;28;20718;-93
2022/11/01 08:30:50;;;;;;;16.30;3.63;;;15.90;68.80;;;;;;5002087;28;20198;-92
2022/11/01 08:33:17;;;;;;;12.37;3.57;;;15.90;68.90;;;;;;4997513;28;20218;-91
2022/11/01 08:35:44;;;;;;;10.30;2.77;;;15.90;69.10;;;;;;5010901;28;20206;-94
2022/11/01 08:38:12;;;;;;;15.83;4.43;;;16.00;69.20;;;;;;5013406;28;20541;-93
2022/11/01 08:40:42;;;;;;;10.67;3.20;;;16.00;69.00;;;;;;5015011;28;20212;-92
2022/11/01 08:43:10;;;;;;;12.77;3.30;;;16.10;69.00;;;;;;5014406;28;20218;-92
2022/11/01 08:45:38;;;;;;;15.20;3.27;;;16.10;69.00;;;;;;5014580;28;20277;-94
2022/11/01 08:48:06;;;;;;;18.03;4.40;;;16.10;69.00;;;;;;5012975;28;20221;-92
2022/11/01 08:50:35;;;;;;;16.77;4.37;;;16.10;68.70;;;;;;5015573;28;20233;-94
2022/11/01 08:53:05;;;;;;;15.90;3.90;;;16.20;68.80;;;;;;5000304;28;20216;-94
2022/11/01 08:55:35;;;;;;;13.13;3.53;;;16.20;68.60;;;;;;5008013;28;20207;-93
2022/11/01 08:58:04;;;;;;;13.57;3.20;;;16.20;68.50;;;;;;5009857;28;20217;-93
2022/11/01 09:00:31;;;;;;;16.70;4.00;;;16.20;68.70;;;;;;5011494;28;20201;-93
2022/11/01 09:02:59;;;;;;;9.07;2.73;;;16.20;68.50;;;;;;5001208;28;20259;-91
2022/11/01 09:05:28;;;;;;;12.63;3.43;;;16.20;68.50;;;;;;5012746;28;20658;-93
2022/11/01 09:08:02;;;;;;;12.63;3.90;;;16.20;68.50;;;;;;5012392;28;20209;-92
2022/11/01 09:10:31;;;;;;;18.33;5.13;;;16.30;68.80;;;;;;5011937;28;20207;-92
2022/11/01 09:13:01;;;;;;;16.33;4.47;;;16.30;69.00;;;;;;4998167;28;20268;-93
2022/11/01 09:15:35;;;;;;;17.47;3.80;;;16.30;68.70;;;;;;5017903;28;20242;-94
2022/11/01 09:18:06;;;;;;;7.57;2.53;;;16.40;69.70;;;;;;5022886;28;20559;-92
2022/11/01 09:20:33;;;;;;;13.97;4.13;;;16.50;69.00;;;;;;5017457;28;20420;-92
2022/11/01 09:23:12;;;;;;;14.57;3.90;;;16.60;69.00;;;;;;5013093;28;20232;-91
2022/11/01 09:25:39;;;;;;;18.03;4.33;;;16.70;68.70;;;;;;5016453;28;20212;-91
2022/11/01 09:28:06;;;;;;;15.87;4.90;;;16.80;68.90;;;;;;5011404;28;20235;-92
2022/11/01 09:30:41;;;;;;;13.57;3.93;;;17.00;69.10;;;;;;5012112;28;20394;-93
2022/11/01 09:33:10;;;;;;;16.70;4.93;;;17.10;68.20;;;;;;5015087;28;20604;-92
2022/11/01 09:35:52;;;;;;;15.93;4.20;;;17.20;68.00;;;;;;5018602;28;20229;-92
2022/11/01 09:38:19;;;;;;;14.13;3.20;;;17.40;68.40;;;;;;5003586;28;20207;-91
2022/11/01 09:40:56;;;;;;;12.20;3.30;;;17.50;67.60;;;;;;5018085;28;20202;-94
2022/11/01 09:43:32;;;;;;;14.73;3.67;;;17.70;67.40;;;;;;5011591;28;20282;-93
2022/11/01 09:46:04;;;;;;;9.83;2.93;;;17.80;67.40;;;;;;5013816;28;20231;-93
2022/11/01 09:48:36;;;;;;;8.90;2.80;;;17.90;66.90;;;;;;5016127;28;20220;-93
2022/11/01 09:51:10;;;;;;;14.87;3.73;;;18.10;66.50;;;;;;5017354;28;20245;-92
2022/11/01 09:53:44;;;;;;;10.10;3.27;;;18.20;65.90;;;;;;5011246;28;20684;-94
2022/11/01 09:56:15;;;;;;;15.27;4.20;;;18.30;65.40;;;;;;5013556;28;20228;-95
2022/11/01 09:58:55;;;;;;;17.20;4.70;;;18.40;65.70;;;;;;5015195;28;20209;-95
2022/11/01 10:01:44;;;;;;;19.50;4.73;;;18.50;65.00;;;;;;5009813;28;20638;-91
2022/11/01 10:05:01;;;;;;;13.17;3.67;;;18.60;64.70;;;;;;5000243;28;20222;-94
2022/11/01 10:07:44;;;;;;;13.47;4.50;;;18.70;64.40;;;;;;5004578;28;20202;-94
2022/11/01 10:10:26;;;;;;;10.93;3.37;;;18.80;64.40;;;;;;5014073;28;20208;-91
2022/11/01 10:13:08;;;;;;;11.70;3.33;;;18.90;64.50;;;;;;5016133;28;20197;-93
2022/11/01 10:15:50;;;;;;;11.87;3.20;;;19.00;64.60;;;;;;5026214;28;20265;-94
2022/11/01 10:18:37;;;;;;;9.57;3.23;;;19.10;64.00;;;;;;5023343;28;20213;-95
2022/11/01 10:21:09;;;;;;;17.23;5.50;;;19.20;63.90;;;;;;5012221;28;20236;-93
2022/11/01 10:23:42;;;;;;;16.10;4.03;;;19.30;63.90;;;;;;5014241;28;20295;-95
2022/11/01 10:26:14;;;;;;;9.47;2.87;;;19.40;64.30;;;;;;5015983;28;20712;-92
2022/11/01 10:28:50;;;;;;;13.87;3.63;;;19.50;63.40;;;;;;5017974;28;20212;-91
2022/11/01 10:31:26;;;;;;;10.87;3.63;;;19.50;63.60;;;;;;5010759;28;20242;-94
2022/11/01 10:34:02;;;;;;;12.10;3.43;;;19.60;63.80;;;;;;5016931;28;20216;-94
2022/11/01 10:36:38;;;;;;;10.27;3.10;;;19.70;62.70;;;;;;5016185;28;20287;-93
2022/11/01 10:39:31;;;;;;;9.17;2.90;;;19.80;62.60;;;;;;5010347;28;20205;-93
2022/11/01 10:42:02;;;;;;;12.97;3.43;;;19.80;62.10;;;;;;5011717;28;20674;-90
2022/11/01 10:44:38;;;;;;;12.93;3.93;;;19.90;61.10;;;;;;5011020;28;20271;-89
2022/11/01 10:47:12;;;;;;;14.03;3.77;;;19.90;61.80;;;;;;5008659;28;20201;-94
2022/11/01 10:50:00;;;;;;;13.00;3.97;;;19.90;61.20;;;;;;5018227;28;20245;-92
2022/11/01 10:52:32;;;;;;;10.90;3.77;;;20.00;60.70;;;;;;5009867;28;20209;-94
2022/11/01 10:55:02;;;;;;;9.83;2.80;;;20.00;60.90;;;;;;5017879;28;20227;-94
2022/11/01 10:57:35;;;;;;;10.63;2.93;;;20.00;61.20;;;;;;5016288;28;20198;-95
2022/11/01 11:00:17;;;;;;;5.53;1.90;;;20.00;60.70;;;;;;5017785;28;20206;-93
2022/11/01 11:02:57;;;;;;;10.90;3.33;;;20.00;61.40;;;;;;5018866;28;20217;-96
2022/11/01 11:05:32;;;;;;;9.13;2.83;;;20.10;61.20;;;;;;5008706;28;20281;-93
2022/11/01 11:08:07;;;;;;;12.97;3.90;;;20.20;60.90;;;;;;4999973;28;20206;-93
2022/11/01 11:10:43;;;;;;;11.80;4.27;;;20.30;60.10;;;;;;5014101;28;20258;-94
2022/11/01 11:13:10;;;;;;;11.03;3.23;;;20.30;60.30;;;;;;5015269;28;20229;-94
2022/11/01 11:15:44;;;;;;;14.80;3.83;;;20.40;60.40;;;;;;5009058;28;20208;-94
2022/11/01 11:18:21;;;;;;;10.57;3.53;;;20.40;59.60;;;;;;5010954;28;20206;-94
2022/11/01 11:20:55;;;;;;;11.60;4.00;;;20.40;59.90;;;;;;5002692;28;20239;-93
2022/11/01 11:23:25;;;;;;;13.07;4.17;;;20.40;59.90;;;;;;5007870;28;20218;-93
2022/11/01 11:25:52;;;;;;;12.17;3.30;;;20.40;60.00;;;;;;5008699;28;20303;-91
2022/11/01 11:28:29;;;;;;;10.03;2.77;;;20.50;59.80;;;;;;5004126;28;20281;-95
2022/11/01 11:30:57;;;;;;;9.77;3.23;;;20.50;59.60;;;;;;5004541;28;20287;-91
2022/11/01 11:33:24;;;;;;;14.17;3.87;;;20.60;60.20;;;;;;5009030;28;20197;-92
2022/11/01 11:36:01;;;;;;;13.27;2.83;;;20.60;60.10;;;;;;5011007;28;20322;-92
2022/11/01 11:38:44;;;;;;;9.90;3.40;;;20.70;59.70;;;;;;5013027;28;20203;-92
2022/11/01 11:44:43;;;;;;;8.87;3.07;;;20.80;59.30;;;;;;5001368;28;20228;-93
2022/11/01 11:47:23;;;;;;;14.43;3.23;;;20.90;59.20;;;;;;5011261;28;20203;-92
2022/11/01 11:49:59;;;;;;;11.23;4.07;;;21.00;59.20;;;;;;5009428;28;20255;-94
2022/11/01 11:52:37;;;;;;;8.37;3.23;;;21.00;59.20;;;;;;5007906;28;20288;-93
2022/11/01 11:55:25;;;;;;;6.47;2.20;;;21.20;60.00;;;;;;5012847;28;20737;-94
2022/11/01 11:57:55;;;;;;;10.17;3.10;;;21.20;59.10;;;;;;5009031;28;20202;-92
2022/11/01 12:00:27;;;;;;;9.97;3.03;;;21.30;59.10;;;;;;5010795;28;20212;-94
2022/11/01 12:02:54;;;;;;;9.23;3.00;;;21.40;58.90;;;;;;5013686;28;20206;-92
2022/11/01 12:05:25;;;;;;;9.00;3.00;;;21.40;58.90;;;;;;5013909;28;20319;-94
2022/11/01 12:07:55;;;;;;;13.53;2.73;;;21.60;58.60;;;;;;5016827;28;20218;-93
2022/11/01 12:10:32;;;;;;;9.07;3.20;;;21.60;58.40;;;;;;5014843;28;20212;-92
2022/11/01 12:13:23;;;;;;;10.87;3.13;;;21.70;57.90;;;;;;5016077;28;20266;-93
2022/11/01 12:16:07;;;;;;;11.00;3.67;;;21.70;58.10;;;;;;5018868;28;20197;-94
2022/11/01 12:18:51;;;;;;;8.97;3.03;;;21.80;58.10;;;;;;5023708;28;20201;-95
2022/11/01 12:24:20;;;;;;;8.67;3.00;;;22.00;57.40;;;;;;5016818;28;20289;-95
2022/11/01 12:26:52;;;;;;;9.63;3.10;;;22.10;57.40;;;;;;5018207;28;20205;-92
2022/11/01 12:29:30;;;;;;;8.30;2.83;;;22.20;58.00;;;;;;5014583;28;20269;-93
2022/11/01 12:32:03;;;;;;;9.70;3.60;;;22.20;57.20;;;;;;5014402;28;20271;-95
2022/11/01 12:34:51;;;;;;;9.57;3.07;;;22.30;56.30;;;;;;5014147;28;20202;-94
2022/11/01 12:37:21;;;;;;;11.20;2.87;;;22.40;55.90;;;;;;5015847;28;20204;-94
2022/11/01 12:39:55;;;;;;;10.20;3.43;;;22.40;56.20;;;;;;5011167;28;20246;-94
2022/11/01 12:42:27;;;;;;;9.57;3.43;;;22.40;56.20;;;;;;5008752;28;20211;-89
2022/11/01 12:45:02;;;;;;;11.07;2.63;;;22.40;56.00;;;;;;5006706;28;20290;-94
2022/11/01 12:47:37;;;;;;;7.73;2.57;;;22.50;55.50;;;;;;5014500;28;20214;-94
2022/11/01 12:53:05;;;;;;;10.07;3.83;;;22.50;56.30;;;;;;5013061;28;20216;-96
2022/11/01 12:55:37;;;;;;;10.90;3.47;;;22.50;55.40;;;;;;5016736;28;20289;-95
2022/11/01 12:58:06;;;;;;;6.57;1.97;;;22.50;56.00;;;;;;5014843;28;20284;-92
2022/11/01 13:00:49;;;;;;;12.60;4.23;;;22.50;55.90;;;;;;5014295;28;20626;-90
2022/11/01 13:03:43;;;;;;;9.77;3.23;;;22.60;56.00;;;;;;5007227;28;20256;-92
2022/11/01 13:06:27;;;;;;;12.40;3.17;;;22.60;55.30;;;;;;5013429;28;20237;-96
2022/11/01 13:09:10;;;;;;;14.43;4.97;;;22.60;55.30;;;;;;5015413;28;20212;-90
2022/11/01 13:11:50;;;;;;;14.17;4.00;;;22.60;55.50;;;;;;5014500;28;20198;-93
2022/11/01 13:14:40;;;;;;;10.87;3.33;;;22.60;54.60;;;;;;5000414;28;20211;-91
2022/11/01 13:17:16;;;;;;;9.27;2.87;;;22.50;54.60;;;;;;5015983;28;20727;-93
2022/11/01 13:19:51;;;;;;;11.20;3.50;;;22.40;54.60;;;;;;5007577;28;20251;-93
2022/11/01 13:22:26;;;;;;;10.87;3.13;;;22.30;54.50;;;;;;5017583;28;20239;-96
2022/11/01 13:25:02;;;;;;;11.47;3.07;;;22.20;54.60;;;;;;5018242;28;20258;-94
2022/11/01 13:27:38;;;;;;;11.77;2.87;;;22.10;54.80;;;;;;5015934;28;20243;-95
2022/11/01 13:30:09;;;;;;;8.10;2.90;;;22.00;54.70;;;;;;5017590;28;20209;-94
2022/11/01 13:32:45;;;;;;;9.70;2.87;;;21.90;55.10;;;;;;5015238;28;20261;-93
2022/11/01 13:35:31;;;;;;;9.30;3.03;;;21.80;55.00;;;;;;5015445;28;20833;-92
2022/11/01 13:38:08;;;;;;;10.73;2.87;;;21.60;55.30;;;;;;5005290;28;20230;-94
2022/11/01 13:40:42;;;;;;;13.33;3.70;;;21.50;55.40;;;;;;5012636;28;20205;-94
2022/11/01 13:43:21;;;;;;;8.47;3.33;;;21.40;55.50;;;;;;5010468;28;20194;-93
2022/11/01 13:46:15;;;;;;;11.53;3.27;;;21.30;55.80;;;;;;5016832;28;20225;-93
2022/11/01 13:49:01;;;;;;;7.20;2.23;;;21.20;55.90;;;;;;5009121;28;20241;-94
2022/11/01 13:51:42;;;;;;;11.50;3.60;;;21.10;55.90;;;;;;5001825;28;20325;-94
2022/11/01 13:54:24;;;;;;;10.20;3.70;;;21.00;56.20;;;;;;5010148;28;20212;-93
2022/11/01 13:57:00;;;;;;;11.63;4.07;;;20.90;56.30;;;;;;5014315;28;20223;-95
2022/11/01 13:59:45;;;;;;;10.83;3.20;;;20.90;56.40;;;;;;5008542;28;20216;-93
2022/11/01 14:02:54;;;;;;;10.47;3.00;;;20.80;56.60;;;;;;5015370;28;20650;-93
2022/11/01 14:05:22;;;;;;;12.30;4.33;;;20.70;56.70;;;;;;4932960;29;20752;-91
2022/11/01 14:08:15;;;;;;;9.93;3.60;;;20.70;56.80;;;;;;4930238;29;20236;-93
2022/11/01 14:10:48;;;;;;;11.47;3.57;;;20.60;56.90;;;;;;4996009;28;20198;-93
2022/11/01 14:13:17;;;;;;;12.53;4.27;;;20.60;57.10;;;;;;5008240;28;20202;-95
2022/11/01 14:16:26;;;;;;;12.10;3.50;;;20.50;57.20;;;;;;5010516;28;20205;-95
2022/11/01 14:19:30;;;;;;;15.70;5.43;;;20.40;57.30;;;;;;5010726;28;20217;-94